createdAt,value
2023-04-11T00:01:21.206Z,11.00
2023-04-11T00:04:11.218Z,13.20
2023-04-11T00:06:58.235Z,11.50
2023-04-11T00:09:45.100Z,13.83
2023-04-11T00:12:31.938Z,11.67
2023-04-11T00:15:20.171Z,10.77
2023-04-11T00:18:09.236Z,10.73
2023-04-11T00:20:55.799Z,12.23
2023-04-11T00:23:42.656Z,13.43
2023-04-11T00:26:29.513Z,10.43
2023-04-11T00:29:16.242Z,11.53
2023-04-11T00:32:02.904Z,9.43
2023-04-11T00:34:51.541Z,11.60
2023-04-11T00:37:38.193Z,11.37
2023-04-11T00:40:25.092Z,11.50
2023-04-11T00:43:12.078Z,14.87
2023-04-11T00:45:58.875Z,10.90
2023-04-11T00:48:45.795Z,10.10
2023-04-11T00:51:33.966Z,11.30
2023-04-11T00:54:20.667Z,11.27
2023-04-11T00:57:08.868Z,11.30
2023-04-11T00:59:55.811Z,11.37
2023-04-11T01:02:45.362Z,11.27
2023-04-11T01:05:33.242Z,12.87
2023-04-11T01:08:22.508Z,12.33
2023-04-11T01:11:10.723Z,11.67
2023-04-11T01:13:58.237Z,12.33
2023-04-11T01:16:47.131Z,12.17
2023-04-11T01:19:34.372Z,11.93
2023-04-11T01:22:23.926Z,11.10
2023-04-11T01:25:12.363Z,12.93
2023-04-11T01:27:59.461Z,9.67
2023-04-11T01:30:46.566Z,12.37
2023-04-11T01:33:33.104Z,10.27
2023-04-11T01:36:20.202Z,10.93
2023-04-11T01:39:06.757Z,11.40
2023-04-11T01:41:55.150Z,13.17
2023-04-11T01:44:42.709Z,12.13
2023-04-11T01:47:29.335Z,14.80
2023-04-11T01:50:16.046Z,12.00
2023-04-11T01:53:02.895Z,12.73
2023-04-11T01:55:49.749Z,13.47
2023-04-11T01:58:37.964Z,8.63
2023-04-11T02:01:24.606Z,11.77
2023-04-11T02:04:11.892Z,13.23
2023-04-11T02:07:00.911Z,12.53
2023-04-11T02:09:47.622Z,15.50
2023-04-11T02:12:34.622Z,11.97
2023-04-11T02:15:22.499Z,10.57
2023-04-11T02:18:10.039Z,11.40
2023-04-11T02:20:56.464Z,11.83
2023-04-11T02:23:43.098Z,13.40
2023-04-11T02:26:29.912Z,12.03
2023-04-11T02:29:16.705Z,11.87
2023-04-11T02:32:05.175Z,11.93
2023-04-11T02:34:51.807Z,13.90
2023-04-11T02:37:38.590Z,11.83
2023-04-11T02:40:25.275Z,12.97
2023-04-11T02:43:12.306Z,12.20
2023-04-11T02:46:11.719Z,11.27
2023-04-11T02:49:02.737Z,11.67
2023-04-11T02:51:49.725Z,10.77
2023-04-11T02:54:36.394Z,12.43
2023-04-11T02:57:23.198Z,9.70
2023-04-11T03:00:11.058Z,10.87
2023-04-11T03:03:06.617Z,11.67
2023-04-11T03:06:00.206Z,11.67
2023-04-11T03:08:47.592Z,13.77
2023-04-11T03:11:34.276Z,11.60
2023-04-11T03:14:22.940Z,10.93
2023-04-11T03:17:09.841Z,13.63
2023-04-11T03:19:56.692Z,12.93
2023-04-11T03:22:45.548Z,14.50
2023-04-11T03:25:32.570Z,11.90
2023-04-11T03:28:21.799Z,10.27
2023-04-11T03:31:09.036Z,13.07
2023-04-11T03:33:55.718Z,10.20
2023-04-11T03:36:43.033Z,13.73
2023-04-11T03:39:31.193Z,11.60
2023-04-11T03:42:18.912Z,13.13
2023-04-11T03:45:10.158Z,10.00
2023-04-11T03:47:56.849Z,12.77
2023-04-11T03:50:48.960Z,13.07
2023-04-11T03:53:39.892Z,11.40
2023-04-11T03:56:43.852Z,17.50
2023-04-11T03:59:37.609Z,12.90
2023-04-11T04:02:29.734Z,11.73
2023-04-11T04:05:17.286Z,15.43
2023-04-11T04:08:04.549Z,10.33
2023-04-11T04:11:02.042Z,13.20
2023-04-11T04:13:52.805Z,12.43
2023-04-11T04:16:40.483Z,14.03
2023-04-11T04:19:27.998Z,12.73
2023-04-11T04:22:17.842Z,12.30
2023-04-11T04:25:12.836Z,10.47
2023-04-11T04:28:01.074Z,14.27
2023-04-11T04:30:58.263Z,11.33
2023-04-11T04:33:49.592Z,9.90
2023-04-11T04:36:49.387Z,10.90
2023-04-11T04:39:43.481Z,11.10
2023-04-11T04:42:36.096Z,13.33
2023-04-11T04:45:25.397Z,11.20
2023-04-11T04:48:15.028Z,10.47
2023-04-11T04:51:01.653Z,10.87
2023-04-11T04:53:48.840Z,9.97
2023-04-11T04:56:35.757Z,12.10
2023-04-11T04:59:23.126Z,13.70
2023-04-11T05:02:17.357Z,12.17
2023-04-11T05:05:08.258Z,15.53
2023-04-11T05:07:55.139Z,12.00
2023-04-11T05:10:41.935Z,12.47
2023-04-11T05:13:34.803Z,12.00
2023-04-11T05:16:23.162Z,13.00
2023-04-11T05:19:10.061Z,14.13
2023-04-11T05:22:02.469Z,12.67
2023-04-11T05:24:51.094Z,13.40
2023-04-11T05:27:38.023Z,14.03
2023-04-11T05:30:24.966Z,16.20
2023-04-11T05:33:12.976Z,15.03
2023-04-11T05:36:01.802Z,14.93
2023-04-11T05:38:49.769Z,12.97
2023-04-11T05:41:36.334Z,10.30
2023-04-11T05:44:23.655Z,14.90
2023-04-11T05:47:11.667Z,15.50
2023-04-11T05:49:58.823Z,11.53
2023-04-11T05:52:45.695Z,18.83
2023-04-11T05:55:33.839Z,14.37
2023-04-11T05:58:20.723Z,13.60
2023-04-11T06:01:12.435Z,14.73
2023-04-11T06:03:59.835Z,16.03
2023-04-11T06:06:46.721Z,13.57
2023-04-11T06:09:34.148Z,14.77
2023-04-11T06:12:22.222Z,17.90
2023-04-11T06:15:11.960Z,14.83
2023-04-11T06:17:58.417Z,11.47
2023-04-11T06:20:46.346Z,17.13
2023-04-11T06:23:33.173Z,13.77
2023-04-11T06:26:19.956Z,12.23
2023-04-11T06:29:08.572Z,17.03
2023-04-11T06:31:55.603Z,14.40
2023-04-11T06:34:42.568Z,13.73
2023-04-11T06:37:29.027Z,16.27
2023-04-11T06:40:17.318Z,14.37
2023-04-11T06:43:04.241Z,15.17
2023-04-11T06:45:52.911Z,16.63
2023-04-11T06:48:39.564Z,12.93
2023-04-11T06:51:26.706Z,16.10
2023-04-11T06:54:13.326Z,12.10
2023-04-11T06:57:00.134Z,14.43
2023-04-11T06:59:46.926Z,15.43
2023-04-11T07:02:36.023Z,11.67
2023-04-11T07:05:34.919Z,14.03
2023-04-11T07:08:25.138Z,13.67
2023-04-11T07:11:17.292Z,13.87
2023-04-11T07:14:06.117Z,12.93
2023-04-11T07:16:56.257Z,14.77
2023-04-11T07:19:46.076Z,14.53
2023-04-11T07:22:37.034Z,13.90
2023-04-11T07:25:31.013Z,14.50
2023-04-11T07:28:18.743Z,12.43
2023-04-11T07:31:06.106Z,14.27
2023-04-11T07:33:52.601Z,14.07
2023-04-11T07:36:41.967Z,13.73
2023-04-11T07:39:28.772Z,16.30
2023-04-11T07:42:15.480Z,16.03
2023-04-11T07:45:02.244Z,13.50
2023-04-11T07:47:49.340Z,11.57
2023-04-11T07:50:35.819Z,11.77
2023-04-11T07:53:24.155Z,12.47
2023-04-11T07:56:11.557Z,19.67
2023-04-11T07:58:58.658Z,10.90
2023-04-11T08:01:47.961Z,17.93
2023-04-11T08:04:37.116Z,11.53
2023-04-11T08:07:23.927Z,13.93
2023-04-11T08:10:12.411Z,11.80
2023-04-11T08:12:59.555Z,13.33
2023-04-11T08:15:46.782Z,12.27
2023-04-11T08:18:33.459Z,11.33
2023-04-11T08:21:20.088Z,14.47
2023-04-11T08:24:07.241Z,14.70
2023-04-11T08:26:55.143Z,10.80
2023-04-11T08:29:41.839Z,9.50
2023-04-11T08:32:28.890Z,10.73
2023-04-11T08:35:15.764Z,10.83
2023-04-11T08:38:02.421Z,14.03
2023-04-11T08:40:49.246Z,10.80
2023-04-11T08:43:40.100Z,9.90
2023-04-11T08:46:27.117Z,9.77
2023-04-11T08:49:13.785Z,6.77
2023-04-11T08:52:01.937Z,14.17
2023-04-11T08:54:49.038Z,9.93
2023-04-11T08:57:38.265Z,8.30
2023-04-11T09:00:29.119Z,9.27
2023-04-11T09:03:18.148Z,8.97
2023-04-11T09:06:11.493Z,9.60
2023-04-11T09:08:59.167Z,7.80
2023-04-11T09:11:53.094Z,7.87
2023-04-11T09:14:39.789Z,6.47
2023-04-11T09:17:42.589Z,6.63
2023-04-11T09:20:30.597Z,7.50
2023-04-11T09:23:26.733Z,6.57
2023-04-11T09:26:27.550Z,5.70
2023-04-11T09:29:36.039Z,6.07
2023-04-11T09:32:33.498Z,6.50
2023-04-11T09:35:22.909Z,5.07
2023-04-11T09:38:09.797Z,5.83
2023-04-11T09:40:57.123Z,4.77
2023-04-11T09:43:51.505Z,5.17
2023-04-11T09:46:38.476Z,3.37
2023-04-11T09:49:27.149Z,6.03
2023-04-11T09:52:14.302Z,7.33
2023-04-11T09:55:01.850Z,2.83
2023-04-11T09:57:51.029Z,6.13
2023-04-11T10:00:38.697Z,8.83
2023-04-11T10:03:26.578Z,3.43
2023-04-11T10:06:22.482Z,6.33
2023-04-11T10:09:11.306Z,5.70
2023-04-11T10:11:58.283Z,4.63
2023-04-11T10:14:48.261Z,4.63
2023-04-11T10:17:35.279Z,9.20
2023-04-11T10:20:45.107Z,8.50
2023-04-11T10:24:16.316Z,4.67
2023-04-11T10:27:04.805Z,7.47
2023-04-11T10:29:53.266Z,5.60
2023-04-11T10:32:40.995Z,5.87
2023-04-11T10:35:29.620Z,8.77
2023-04-11T10:38:51.247Z,4.73
2023-04-11T10:41:38.148Z,6.40
2023-04-11T10:44:25.079Z,5.97
2023-04-11T10:47:18.759Z,4.27
2023-04-11T10:50:26.216Z,7.50
2023-04-11T10:53:36.658Z,9.10
2023-04-11T10:56:58.137Z,4.40
2023-04-11T11:00:00.871Z,7.43
2023-04-11T11:02:52.329Z,6.80
2023-04-11T11:05:40.548Z,6.20
2023-04-11T11:08:31.468Z,4.93
2023-04-11T11:11:19.429Z,5.67
2023-04-11T11:14:09.159Z,9.50
2023-04-11T11:16:55.777Z,2.40
2023-04-11T11:19:44.988Z,13.60
2023-04-11T11:22:31.372Z,3.70
2023-04-11T11:25:19.397Z,7.53
2023-04-11T11:28:07.914Z,3.10
2023-04-11T11:30:57.528Z,4.23
2023-04-11T11:33:44.404Z,5.63
2023-04-11T11:36:33.000Z,3.67
2023-04-11T11:39:21.297Z,2.77
2023-04-11T11:42:09.529Z,5.03
2023-04-11T11:45:14.478Z,6.53
2023-04-11T11:48:02.872Z,3.73
2023-04-11T11:50:57.120Z,4.47
2023-04-11T11:53:43.866Z,1.43
2023-04-11T11:56:30.624Z,5.80
2023-04-11T11:59:27.801Z,2.20
2023-04-11T12:02:17.310Z,2.87
2023-04-11T12:05:07.822Z,3.03
2023-04-11T12:07:55.957Z,2.40
2023-04-11T12:10:43.847Z,6.77
2023-04-11T12:13:32.418Z,3.00
2023-04-11T12:16:23.128Z,3.67
2023-04-11T12:19:10.308Z,3.00
2023-04-11T12:21:58.210Z,1.60
2023-04-11T12:24:45.141Z,3.10
2023-04-11T12:27:33.154Z,1.67
2023-04-11T12:30:19.582Z,2.77
2023-04-11T12:33:06.543Z,2.50
2023-04-11T12:35:53.342Z,7.40
2023-04-11T12:38:41.430Z,3.37
2023-04-11T12:41:31.664Z,4.07
2023-04-11T12:44:19.487Z,1.60
2023-04-11T12:47:06.727Z,2.07
2023-04-11T12:49:53.452Z,3.50
2023-04-11T12:52:40.302Z,4.27
2023-04-11T12:55:28.818Z,3.27
2023-04-11T12:58:15.881Z,3.23
2023-04-11T13:01:05.708Z,3.00
2023-04-11T13:03:52.243Z,1.60
2023-04-11T13:06:38.977Z,1.70
2023-04-11T13:09:25.813Z,2.97
2023-04-11T13:12:13.869Z,1.30
2023-04-11T13:15:01.284Z,1.33
2023-04-11T13:17:48.199Z,2.67
2023-04-11T13:20:34.745Z,1.10
2023-04-11T13:23:21.496Z,1.20
2023-04-11T13:26:09.151Z,1.43
2023-04-11T13:28:58.005Z,2.80
2023-04-11T13:31:44.821Z,4.20
2023-04-11T13:34:31.684Z,1.37
2023-04-11T13:37:18.476Z,2.20
2023-04-11T13:40:08.465Z,7.10
2023-04-11T13:42:56.160Z,1.60
2023-04-11T13:45:44.590Z,1.27
2023-04-11T13:48:31.413Z,6.40
2023-04-11T13:51:18.014Z,1.03
2023-04-11T13:54:05.078Z,2.67
2023-04-11T13:56:51.965Z,2.23
2023-04-11T13:59:38.833Z,1.80
2023-04-11T14:02:27.181Z,2.07
2023-04-11T14:05:14.453Z,1.70
2023-04-11T14:08:01.143Z,1.60
2023-04-11T14:10:47.790Z,1.43
2023-04-11T14:13:34.660Z,2.47
2023-04-11T14:16:21.389Z,1.20
2023-04-11T14:19:09.518Z,2.70
2023-04-11T14:21:57.937Z,1.40
2023-04-11T14:24:44.925Z,2.47
2023-04-11T14:27:31.722Z,1.30
2023-04-11T14:30:18.561Z,1.43
2023-04-11T14:33:05.535Z,1.53
2023-04-11T14:35:53.602Z,1.23
2023-04-11T14:38:40.322Z,1.47
2023-04-11T14:41:27.185Z,0.97
2023-04-11T14:44:14.036Z,1.20
2023-04-11T14:47:00.472Z,1.20
2023-04-11T14:49:47.240Z,1.50
2023-04-11T14:52:35.402Z,1.53
2023-04-11T14:55:22.133Z,2.63
2023-04-11T14:58:09.018Z,1.93
2023-04-11T15:00:56.029Z,1.30
2023-04-11T15:03:42.717Z,1.47
2023-04-11T15:06:30.748Z,1.43
2023-04-11T15:09:21.162Z,1.70
2023-04-11T15:12:07.662Z,1.43
2023-04-11T15:14:54.420Z,1.50
2023-04-11T15:17:42.970Z,3.03
2023-04-11T15:20:29.399Z,1.73
2023-04-11T15:23:16.477Z,3.10
2023-04-11T15:26:04.997Z,1.50
2023-04-11T15:28:52.283Z,4.93
2023-04-11T15:31:39.070Z,4.03
2023-04-11T15:34:26.610Z,2.47
2023-04-11T15:37:13.299Z,4.87
2023-04-11T15:40:00.206Z,4.27
2023-04-11T15:42:49.863Z,2.43
2023-04-11T15:45:38.124Z,3.57
2023-04-11T15:48:24.997Z,1.63
2023-04-11T15:51:14.223Z,3.33
2023-04-11T15:54:00.620Z,2.17
2023-04-11T15:56:47.360Z,2.67
2023-04-11T15:59:38.081Z,2.13
2023-04-11T16:02:24.850Z,3.87
2023-04-11T16:05:11.734Z,1.80
2023-04-11T16:07:58.399Z,3.80
2023-04-11T16:10:45.175Z,3.80
2023-04-11T16:13:31.991Z,2.50
2023-04-11T16:16:20.130Z,6.90
2023-04-11T16:19:07.486Z,2.03
2023-04-11T16:21:54.423Z,2.20
2023-04-11T16:24:41.188Z,3.37
2023-04-11T16:27:27.983Z,2.33
2023-04-11T16:30:15.051Z,3.00
2023-04-11T16:33:02.968Z,4.03
2023-04-11T16:35:49.636Z,2.40
2023-04-11T16:38:36.253Z,1.87
2023-04-11T16:41:22.994Z,2.37
2023-04-11T16:44:11.517Z,2.90
2023-04-11T16:46:58.204Z,5.73
2023-04-11T16:49:47.141Z,5.07
2023-04-11T16:52:33.903Z,2.77
2023-04-11T16:55:20.567Z,2.37
2023-04-11T16:58:08.894Z,4.70
2023-04-11T17:00:55.921Z,3.07
2023-04-11T17:03:43.275Z,2.20
2023-04-11T17:06:31.544Z,4.23
2023-04-11T17:09:19.225Z,3.80
2023-04-11T17:12:06.275Z,3.43
2023-04-11T17:14:55.256Z,3.93
2023-04-11T17:17:42.121Z,4.30
2023-04-11T17:20:28.918Z,3.33
2023-04-11T17:23:17.084Z,3.43
2023-04-11T17:26:04.399Z,3.13
2023-04-11T17:28:51.877Z,1.93
2023-04-11T17:31:38.675Z,1.90
2023-04-11T17:34:25.524Z,3.93
2023-04-11T17:37:12.456Z,2.43
2023-04-11T17:40:00.933Z,3.63
2023-04-11T17:42:47.955Z,5.07
2023-04-11T17:45:34.914Z,7.53
2023-04-11T17:48:23.102Z,1.83
2023-04-11T17:51:09.781Z,3.33
2023-04-11T17:53:56.506Z,4.70
2023-04-11T17:56:44.516Z,5.47
2023-04-11T17:59:31.633Z,1.80
2023-04-11T18:02:18.179Z,1.50
2023-04-11T18:05:13.272Z,2.40
2023-04-11T18:08:09.638Z,2.33
2023-04-11T18:10:56.243Z,2.93
2023-04-11T18:13:46.377Z,1.63
2023-04-11T18:16:34.682Z,3.03
2023-04-11T18:19:21.685Z,1.93
2023-04-11T18:22:08.401Z,2.93
2023-04-11T18:24:55.318Z,3.70
2023-04-11T18:27:42.452Z,3.30
2023-04-11T18:30:30.582Z,1.60
2023-04-11T18:33:18.374Z,2.97
2023-04-11T18:36:07.200Z,4.63
2023-04-11T18:38:53.923Z,4.93
2023-04-11T18:41:40.650Z,4.10
2023-04-11T18:44:27.631Z,2.37
2023-04-11T18:47:17.499Z,1.63
2023-04-11T18:50:05.001Z,1.63
2023-04-11T18:52:55.603Z,2.17
2023-04-11T18:55:43.983Z,3.60
2023-04-11T18:58:33.352Z,1.93
2023-04-11T19:01:21.336Z,4.10
2023-04-11T19:04:11.117Z,1.77
2023-04-11T19:06:59.113Z,6.10
2023-04-11T19:09:47.016Z,1.60
2023-04-11T19:12:33.736Z,1.60
2023-04-11T19:15:20.611Z,1.50
2023-04-11T19:18:07.746Z,1.80
2023-04-11T19:20:55.825Z,3.50
2023-04-11T19:23:42.787Z,1.70
2023-04-11T19:26:29.674Z,2.97
2023-04-11T19:29:17.293Z,3.40
2023-04-11T19:32:04.324Z,8.10
2023-04-11T19:34:51.438Z,2.63
2023-04-11T19:37:41.361Z,3.70
2023-04-11T19:40:28.507Z,4.33
2023-04-11T19:43:15.582Z,2.93
2023-04-11T19:46:03.141Z,3.23
2023-04-11T19:48:51.570Z,1.90
2023-04-11T19:51:40.269Z,1.97
2023-04-11T19:54:31.358Z,1.93
2023-04-11T19:57:18.808Z,2.43
2023-04-11T20:00:14.987Z,2.13
2023-04-11T20:03:05.997Z,3.33
2023-04-11T20:05:52.853Z,2.13
2023-04-11T20:08:39.872Z,2.20
2023-04-11T20:11:29.244Z,3.37
2023-04-11T20:14:15.897Z,2.33
2023-04-11T20:17:02.749Z,2.03
2023-04-11T20:19:53.078Z,2.67
2023-04-11T20:22:40.511Z,2.70
2023-04-11T20:25:27.321Z,1.87
2023-04-11T20:28:15.514Z,3.63
2023-04-11T20:31:04.390Z,3.50
2023-04-11T20:33:51.311Z,6.53
2023-04-11T20:36:38.090Z,2.13
2023-04-11T20:39:24.728Z,3.03
2023-04-11T20:42:12.411Z,3.77
2023-04-11T20:45:19.124Z,6.40
2023-04-11T20:48:12.998Z,4.40
2023-04-11T20:51:01.848Z,6.80
2023-04-11T20:53:50.880Z,2.03
2023-04-11T20:56:40.073Z,3.63
2023-04-11T20:59:36.462Z,2.60
2023-04-11T21:02:30.683Z,5.73
2023-04-11T21:05:21.455Z,4.00
2023-04-11T21:08:10.320Z,2.27
2023-04-11T21:11:01.486Z,3.07
2023-04-11T21:13:54.268Z,2.30
2023-04-11T21:16:45.729Z,6.53
2023-04-11T21:19:38.374Z,2.90
2023-04-11T21:22:29.961Z,5.00
2023-04-11T21:25:20.153Z,2.00
2023-04-11T21:28:08.773Z,2.87
2023-04-11T21:30:57.499Z,4.97
2023-04-11T21:33:48.739Z,2.23
2023-04-11T21:36:40.798Z,6.20
2023-04-11T21:39:29.996Z,7.83
2023-04-11T21:42:18.706Z,6.57
2023-04-11T21:45:12.025Z,3.27
2023-04-11T21:48:01.210Z,9.90
2023-04-11T21:50:51.560Z,2.23
2023-04-11T21:53:43.364Z,3.40
2023-04-11T21:56:32.913Z,2.43
2023-04-11T21:59:26.028Z,4.67
2023-04-11T22:02:19.629Z,4.07
2023-04-11T22:05:12.789Z,7.90
2023-04-11T22:08:15.422Z,2.37
2023-04-11T22:11:14.978Z,6.07
2023-04-11T22:14:08.089Z,2.03
2023-04-11T22:16:59.512Z,4.17
2023-04-11T22:19:51.219Z,4.33
2023-04-11T22:22:42.479Z,3.77
2023-04-11T22:25:33.202Z,5.07
2023-04-11T22:28:25.905Z,2.73
2023-04-11T22:31:16.832Z,2.47
2023-04-11T22:34:09.388Z,2.47
2023-04-11T22:37:00.278Z,2.87
2023-04-11T22:39:52.113Z,5.30
2023-04-11T22:42:40.936Z,2.63
2023-04-11T22:45:46.078Z,5.43
2023-04-11T22:48:37.531Z,4.70
2023-04-11T22:51:34.139Z,4.07
2023-04-11T22:54:34.700Z,3.47
2023-04-11T22:57:26.505Z,4.87
2023-04-11T23:00:17.044Z,5.50
2023-04-11T23:03:07.799Z,4.37
2023-04-11T23:05:55.592Z,3.53
2023-04-11T23:08:43.692Z,5.10
2023-04-11T23:11:31.933Z,4.50
2023-04-11T23:14:21.417Z,3.33
2023-04-11T23:17:09.388Z,4.47
2023-04-11T23:20:00.070Z,4.30
2023-04-11T23:22:46.612Z,5.30
2023-04-11T23:25:39.959Z,4.90
2023-04-11T23:28:28.596Z,3.87
2023-04-11T23:31:17.980Z,5.53
2023-04-11T23:34:04.669Z,3.37
2023-04-11T23:36:53.950Z,3.83
2023-04-11T23:39:41.179Z,4.23
2023-04-11T23:42:28.930Z,7.83
2023-04-11T23:45:20.882Z,5.07
2023-04-11T23:48:07.951Z,6.97
2023-04-11T23:50:55.455Z,4.07
2023-04-11T23:53:46.033Z,4.30
2023-04-11T23:56:34.204Z,7.17
2023-04-11T23:59:21.200Z,3.50
